sensor_id;sensor_type;location;lat;lon;timestamp;pressure;altitude;pressure_sealevel;temperature;humidity
11444;BME280;5778;47.856;12.154;2023-02-05T00:00:43;98200.31;;;0.41;100.00
11444;BME280;5778;47.856;12.154;2023-02-05T00:03:13;98208.25;;;0.49;100.00
11444;BME280;5778;47.856;12.154;2023-02-05T00:05:40;98218.75;;;0.39;100.00
11444;BME280;5778;47.856;12.154;2023-02-05T00:08:08;98212.31;;;0.34;100.00
11444;BME280;5778;47.856;12.154;2023-02-05T00:10:36;98215.34;;;0.39;100.00
11444;BME280;5778;47.856;12.154;2023-02-05T00:13:04;98217.97;;;0.39;100.00
11444;BME280;5778;47.856;12.154;2023-02-05T00:15:34;98215.75;;;0.34;100.00
11444;BME280;5778;47.856;12.154;2023-02-05T00:18:02;98216.00;;;0.41;100.00
11444;BME280;5778;47.856;12.154;2023-02-05T00:20:31;98212.47;;;0.32;100.00
11444;BME280;5778;47.856;12.154;2023-02-05T00:23:00;98210.91;;;0.39;100.00
11444;BME280;5778;47.856;12.154;2023-02-05T00:25:28;98206.91;;;0.45;100.00
11444;BME280;5778;47.856;12.154;2023-02-05T00:27:55;98209.41;;;0.46;100.00
11444;BME280;5778;47.856;12.154;2023-02-05T00:30:24;98210.06;;;0.48;100.00
11444;BME280;5778;47.856;12.154;2023-02-05T00:32:54;98207.97;;;0.52;100.00
11444;BME280;5778;47.856;12.154;2023-02-05T00:35:23;98209.34;;;0.56;100.00
11444;BME280;5778;47.856;12.154;2023-02-05T00:37:52;98211.56;;;0.51;100.00
11444;BME280;5778;47.856;12.154;2023-02-05T00:40:21;98209.66;;;0.43;100.00
11444;BME280;5778;47.856;12.154;2023-02-05T00:42:48;98210.94;;;0.30;100.00
11444;BME280;5778;47.856;12.154;2023-02-05T00:45:16;98207.69;;;0.09;100.00
11444;BME280;5778;47.856;12.154;2023-02-05T00:47:43;98213.09;;;-0.02;100.00
11444;BME280;5778;47.856;12.154;2023-02-05T00:50:11;98203.16;;;0.01;100.00
11444;BME280;5778;47.856;12.154;2023-02-05T00:52:38;98200.81;;;0.08;100.00
11444;BME280;5778;47.856;12.154;2023-02-05T00:55:11;98195.72;;;0.06;100.00
11444;BME280;5778;47.856;12.154;2023-02-05T00:57:39;98198.25;;;-0.21;100.00
11444;BME280;5778;47.856;12.154;2023-02-05T01:00:07;98208.16;;;-0.15;100.00
11444;BME280;5778;47.856;12.154;2023-02-05T01:02:35;98209.53;;;-0.11;100.00
11444;BME280;5778;47.856;12.154;2023-02-05T01:05:04;98217.50;;;-0.03;100.00
11444;BME280;5778;47.856;12.154;2023-02-05T01:07:32;98217.25;;;-0.09;100.00
11444;BME280;5778;47.856;12.154;2023-02-05T01:09:59;98224.41;;;-0.21;100.00
11444;BME280;5778;47.856;12.154;2023-02-05T01:12:31;98221.25;;;-0.33;100.00
11444;BME280;5778;47.856;12.154;2023-02-05T01:15:00;98223.28;;;-0.18;100.00
11444;BME280;5778;47.856;12.154;2023-02-05T01:17:27;98215.59;;;-0.10;100.00
11444;BME280;5778;47.856;12.154;2023-02-05T01:19:54;98218.34;;;-0.12;100.00
11444;BME280;5778;47.856;12.154;2023-02-05T01:22:22;98212.81;;;-0.09;100.00
11444;BME280;5778;47.856;12.154;2023-02-05T01:24:50;98206.78;;;-0.09;100.00
11444;BME280;5778;47.856;12.154;2023-02-05T01:27:18;98211.19;;;0.00;100.00
11444;BME280;5778;47.856;12.154;2023-02-05T01:29:48;98205.91;;;0.09;100.00
11444;BME280;5778;47.856;12.154;2023-02-05T01:32:15;98204.50;;;0.15;100.00
11444;BME280;5778;47.856;12.154;2023-02-05T01:34:42;98203.00;;;0.22;100.00
11444;BME280;5778;47.856;12.154;2023-02-05T01:37:11;98197.78;;;0.22;100.00
11444;BME280;5778;47.856;12.154;2023-02-05T01:39:38;98191.97;;;0.28;100.00
11444;BME280;5778;47.856;12.154;2023-02-05T01:42:14;98193.06;;;0.25;100.00
11444;BME280;5778;47.856;12.154;2023-02-05T01:44:43;98197.94;;;0.11;100.00
11444;BME280;5778;47.856;12.154;2023-02-05T01:47:11;98192.31;;;0.06;100.00
11444;BME280;5778;47.856;12.154;2023-02-05T01:49:41;98195.72;;;0.06;100.00
11444;BME280;5778;47.856;12.154;2023-02-05T01:52:12;98191.44;;;0.15;100.00
11444;BME280;5778;47.856;12.154;2023-02-05T01:54:42;98197.91;;;0.20;100.00
11444;BME280;5778;47.856;12.154;2023-02-05T01:57:13;98197.78;;;0.22;100.00
11444;BME280;5778;47.856;12.154;2023-02-05T01:59:43;98192.69;;;0.20;100.00
11444;BME280;5778;47.856;12.154;2023-02-05T02:02:12;98194.06;;;0.15;100.00
11444;BME280;5778;47.856;12.154;2023-02-05T02:04:41;98188.00;;;0.14;100.00
11444;BME280;5778;47.856;12.154;2023-02-05T02:07:10;98190.50;;;0.06;100.00
11444;BME280;5778;47.856;12.154;2023-02-05T02:09:41;98186.94;;;-0.02;100.00
11444;BME280;5778;47.856;12.154;2023-02-05T02:12:13;98190.25;;;0.00;100.00
11444;BME280;5778;47.856;12.154;2023-02-05T02:14:44;98191.34;;;-0.12;100.00
11444;BME280;5778;47.856;12.154;2023-02-05T02:17:15;98190.00;;;-0.16;100.00
11444;BME280;5778;47.856;12.154;2023-02-05T02:19:45;98195.47;;;-0.10;100.00
11444;BME280;5778;47.856;12.154;2023-02-05T02:22:56;98195.91;;;-0.14;100.00
11444;BME280;5778;47.856;12.154;2023-02-05T02:25:47;98193.31;;;-0.23;100.00
11444;BME280;5778;47.856;12.154;2023-02-05T02:28:25;98190.00;;;-0.26;100.00
11444;BME280;5778;47.856;12.154;2023-02-05T02:31:00;98193.44;;;-0.25;100.00
11444;BME280;5778;47.856;12.154;2023-02-05T02:33:33;98195.78;;;-0.22;100.00
11444;BME280;5778;47.856;12.154;2023-02-05T02:36:07;98194.00;;;-0.22;100.00
11444;BME280;5778;47.856;12.154;2023-02-05T02:38:38;98194.00;;;-0.22;100.00
11444;BME280;5778;47.856;12.154;2023-02-05T02:41:12;98186.44;;;-0.24;100.00
11444;BME280;5778;47.856;12.154;2023-02-05T02:43:47;98181.06;;;-0.23;100.00
11444;BME280;5778;47.856;12.154;2023-02-05T02:46:21;98185.31;;;-0.22;100.00
11444;BME280;5778;47.856;12.154;2023-02-05T02:48:55;98179.41;;;-0.24;100.00
11444;BME280;5778;47.856;12.154;2023-02-05T02:51:26;98179.72;;;-0.27;100.00
11444;BME280;5778;47.856;12.154;2023-02-05T02:53:59;98184.78;;;-0.16;100.00
11444;BME280;5778;47.856;12.154;2023-02-05T02:56:36;98177.63;;;-0.14;100.00
11444;BME280;5778;47.856;12.154;2023-02-05T02:59:10;98177.06;;;-0.17;100.00
11444;BME280;5778;47.856;12.154;2023-02-05T03:01:41;98174.03;;;-0.13;100.00
11444;BME280;5778;47.856;12.154;2023-02-05T03:04:14;98182.84;;;-0.14;100.00
11444;BME280;5778;47.856;12.154;2023-02-05T03:06:47;98180.50;;;-0.17;100.00
11444;BME280;5778;47.856;12.154;2023-02-05T03:09:21;98174.03;;;-0.13;100.00
11444;BME280;5778;47.856;12.154;2023-02-05T03:11:54;98173.22;;;-0.13;100.00
11444;BME280;5778;47.856;12.154;2023-02-05T03:14:26;98162.72;;;-0.04;100.00
11444;BME280;5778;47.856;12.154;2023-02-05T03:16:55;98162.03;;;-0.06;100.00
11444;BME280;5778;47.856;12.154;2023-02-05T03:19:22;98157.19;;;-0.01;100.00
11444;BME280;5778;47.856;12.154;2023-02-05T03:21:55;98155.69;;;0.06;100.00
11444;BME280;5778;47.856;12.154;2023-02-05T03:24:29;98152.50;;;0.12;100.00
11444;BME280;5778;47.856;12.154;2023-02-05T03:26:57;98155.25;;;0.10;100.00
11444;BME280;5778;47.856;12.154;2023-02-05T03:29:28;98151.00;;;0.09;100.00
11444;BME280;5778;47.856;12.154;2023-02-05T03:32:13;98152.94;;;-0.02;100.00
11444;BME280;5778;47.856;12.154;2023-02-05T03:34:51;98136.63;;;-0.23;100.00
11444;BME280;5778;47.856;12.154;2023-02-05T03:37:29;98147.06;;;-0.23;100.00
11444;BME280;5778;47.856;12.154;2023-02-05T03:40:13;98144.06;;;-0.28;100.00
11444;BME280;5778;47.856;12.154;2023-02-05T03:42:50;98135.00;;;-0.33;100.00
11444;BME280;5778;47.856;12.154;2023-02-05T03:45:50;98131.84;;;-0.47;100.00
11444;BME280;5778;47.856;12.154;2023-02-05T03:48:37;98142.03;;;-0.43;100.00
11444;BME280;5778;47.856;12.154;2023-02-05T03:51:20;98134.06;;;-0.42;100.00
11444;BME280;5778;47.856;12.154;2023-02-05T03:54:02;98126.50;;;-0.54;100.00
11444;BME280;5778;47.856;12.154;2023-02-05T03:56:40;98119.91;;;-0.49;100.00
11444;BME280;5778;47.856;12.154;2023-02-05T03:59:10;98113.53;;;-0.47;100.00
11444;BME280;5778;47.856;12.154;2023-02-05T04:01:43;98110.28;;;-0.58;100.00
11444;BME280;5778;47.856;12.154;2023-02-05T04:04:13;98100.38;;;-0.83;100.00
11444;BME280;5778;47.856;12.154;2023-02-05T04:06:44;98117.44;;;-0.79;100.00
11444;BME280;5778;47.856;12.154;2023-02-05T04:09:13;98116.22;;;-0.75;100.00
11444;BME280;5778;47.856;12.154;2023-02-05T04:11:40;98121.84;;;-0.70;100.00
11444;BME280;5778;47.856;12.154;2023-02-05T04:14:07;98118.94;;;-0.67;100.00
11444;BME280;5778;47.856;12.154;2023-02-05T04:16:38;98115.50;;;-0.77;100.00
11444;BME280;5778;47.856;12.154;2023-02-05T04:19:10;98126.38;;;-0.91;100.00
11444;BME280;5778;47.856;12.154;2023-02-05T04:21:37;98126.78;;;-1.05;100.00
11444;BME280;5778;47.856;12.154;2023-02-05T04:24:06;98115.09;;;-1.01;100.00
11444;BME280;5778;47.856;12.154;2023-02-05T04:26:33;98122.94;;;-1.01;100.00
11444;BME280;5778;47.856;12.154;2023-02-05T04:29:03;98123.47;;;-0.97;100.00
11444;BME280;5778;47.856;12.154;2023-02-05T04:31:34;98117.47;;;-0.98;100.00
11444;BME280;5778;47.856;12.154;2023-02-05T04:34:02;98121.00;;;-0.99;100.00
11444;BME280;5778;47.856;12.154;2023-02-05T04:36:30;98113.03;;;-0.97;100.00
11444;BME280;5778;47.856;12.154;2023-02-05T04:38:57;98112.06;;;-1.06;100.00
11444;BME280;5778;47.856;12.154;2023-02-05T04:41:27;98110.81;;;-1.21;100.00
11444;BME280;5778;47.856;12.154;2023-02-05T04:43:54;98106.16;;;-1.27;100.00
11444;BME280;5778;47.856;12.154;2023-02-05T04:46:23;98106.44;;;-1.20;100.00
11444;BME280;5778;47.856;12.154;2023-02-05T04:48:50;98106.16;;;-1.27;100.00
11444;BME280;5778;47.856;12.154;2023-02-05T04:51:17;98099.84;;;-1.24;100.00
11444;BME280;5778;47.856;12.154;2023-02-05T04:53:45;98101.34;;;-1.22;100.00
11444;BME280;5778;47.856;12.154;2023-02-05T04:56:15;98090.91;;;-1.22;100.00
11444;BME280;5778;47.856;12.154;2023-02-05T04:58:43;98095.16;;;-1.21;100.00
11444;BME280;5778;47.856;12.154;2023-02-05T05:01:14;98086.66;;;-1.23;100.00
11444;BME280;5778;47.856;12.154;2023-02-05T05:03:44;98088.16;;;-1.30;100.00
11444;BME280;5778;47.856;12.154;2023-02-05T05:06:15;98088.72;;;-1.36;100.00
11444;BME280;5778;47.856;12.154;2023-02-05T05:08:46;98081.69;;;-1.26;100.00
11444;BME280;5778;47.856;12.154;2023-02-05T05:11:14;98080.88;;;-1.26;100.00
11444;BME280;5778;47.856;12.154;2023-02-05T05:13:45;98081.97;;;-1.29;100.00
11444;BME280;5778;47.856;12.154;2023-02-05T05:16:13;98074.53;;;-1.43;100.00
11444;BME280;5778;47.856;12.154;2023-02-05T05:18:43;98074.66;;;-1.54;100.00
11444;BME280;5778;47.856;12.154;2023-02-05T05:21:12;98080.81;;;-1.74;100.00
11444;BME280;5778;47.856;12.154;2023-02-05T05:23:39;98074.38;;;-1.60;100.00
11444;BME280;5778;47.856;12.154;2023-02-05T05:26:12;98084.13;;;-1.53;100.00
11444;BME280;5778;47.856;12.154;2023-02-05T05:28:39;98086.59;;;-1.51;100.00
11444;BME280;5778;47.856;12.154;2023-02-05T05:31:13;98086.34;;;-1.48;100.00
11444;BME280;5778;47.856;12.154;2023-02-05T05:33:44;98089.63;;;-1.56;100.00
11444;BME280;5778;47.856;12.154;2023-02-05T05:36:13;98081.63;;;-1.64;100.00
11444;BME280;5778;47.856;12.154;2023-02-05T05:38:43;98078.78;;;-1.61;100.00
11444;BME280;5778;47.856;12.154;2023-02-05T05:41:17;98085.75;;;-1.61;100.00
11444;BME280;5778;47.856;12.154;2023-02-05T05:44:02;98085.91;;;-1.63;100.00
11444;BME280;5778;47.856;12.154;2023-02-05T05:46:32;98084.53;;;-1.67;100.00
11444;BME280;5778;47.856;12.154;2023-02-05T05:49:02;98086.59;;;-1.61;100.00
11444;BME280;5778;47.856;12.154;2023-02-05T05:51:29;98080.47;;;-1.41;100.00
11444;BME280;5778;47.856;12.154;2023-02-05T05:53:57;98082.09;;;-1.30;100.00
11444;BME280;5778;47.856;12.154;2023-02-05T05:56:25;98070.84;;;-1.31;100.00
11444;BME280;5778;47.856;12.154;2023-02-05T05:58:52;98066.88;;;-1.25;100.00
11444;BME280;5778;47.856;12.154;2023-02-05T06:01:19;98060.69;;;-1.15;100.00
11444;BME280;5778;47.856;12.154;2023-02-05T06:03:47;98067.84;;;-1.17;100.00
11444;BME280;5778;47.856;12.154;2023-02-05T06:06:14;98074.28;;;-1.21;100.00
11444;BME280;5778;47.856;12.154;2023-02-05T06:08:41;98075.94;;;-1.29;100.00
11444;BME280;5778;47.856;12.154;2023-02-05T06:11:08;98081.13;;;-1.29;100.00
11444;BME280;5778;47.856;12.154;2023-02-05T06:13:38;98078.53;;;-1.20;100.00
11444;BME280;5778;47.856;12.154;2023-02-05T06:16:06;98084.34;;;-1.16;100.00
11444;BME280;5778;47.856;12.154;2023-02-05T06:18:33;98085.56;;;-1.11;100.00
11444;BME280;5778;47.856;12.154;2023-02-05T06:21:00;98092.16;;;-1.07;100.00
11444;BME280;5778;47.856;12.154;2023-02-05T06:23:30;98096.66;;;-1.09;100.00
11444;BME280;5778;47.856;12.154;2023-02-05T06:25:57;98093.69;;;-1.14;100.00
11444;BME280;5778;47.856;12.154;2023-02-05T06:28:24;98098.47;;;-1.09;100.00
11444;BME280;5778;47.856;12.154;2023-02-05T06:30:52;98091.06;;;-1.04;100.00
11444;BME280;5778;47.856;12.154;2023-02-05T06:33:19;98088.16;;;-1.01;100.00
11444;BME280;5778;47.856;12.154;2023-02-05T06:35:46;98089.81;;;-1.10;100.00
11444;BME280;5778;47.856;12.154;2023-02-05T06:38:12;98095.44;;;-1.05;100.00
11444;BME280;5778;47.856;12.154;2023-02-05T06:40:39;98091.75;;;-1.02;100.00
11444;BME280;5778;47.856;12.154;2023-02-05T06:43:06;98098.47;;;-0.90;100.00
11444;BME280;5778;47.856;12.154;2023-02-05T06:45:34;98102.88;;;-0.91;100.00
11444;BME280;5778;47.856;12.154;2023-02-05T06:48:04;98097.22;;;-0.86;100.00
11444;BME280;5778;47.856;12.154;2023-02-05T06:50:32;98105.38;;;-0.89;100.00
11444;BME280;5778;47.856;12.154;2023-02-05T06:52:59;98105.75;;;-0.94;100.00
11444;BME280;5778;47.856;12.154;2023-02-05T06:55:26;98119.34;;;-0.90;100.00
11444;BME280;5778;47.856;12.154;2023-02-05T06:57:53;98116.06;;;-0.92;100.00
11444;BME280;5778;47.856;12.154;2023-02-05T07:00:20;98114.56;;;-0.95;100.00
11444;BME280;5778;47.856;12.154;2023-02-05T07:02:47;98118.53;;;-1.10;100.00
11444;BME280;5778;47.856;12.154;2023-02-05T07:05:15;98121.72;;;-0.97;100.00
11444;BME280;5778;47.856;12.154;2023-02-05T07:07:42;98115.09;;;-1.01;100.00
11444;BME280;5778;47.856;12.154;2023-02-05T07:10:09;98117.59;;;-0.90;100.00
11444;BME280;5778;47.856;12.154;2023-02-05T07:12:36;98120.88;;;-0.88;100.00
11444;BME280;5778;47.856;12.154;2023-02-05T07:15:04;98120.47;;;-0.74;100.00
11444;BME280;5778;47.856;12.154;2023-02-05T07:17:31;98121.97;;;-0.71;100.00
11444;BME280;5778;47.856;12.154;2023-02-05T07:19:58;98116.47;;;-0.68;100.00
11444;BME280;5778;47.856;12.154;2023-02-05T07:22:26;98122.81;;;-0.61;100.00
11444;BME280;5778;47.856;12.154;2023-02-05T07:24:53;98119.91;;;-0.49;100.00
11444;BME280;5778;47.856;12.154;2023-02-05T07:27:20;98116.97;;;-0.37;100.00
11444;BME280;5778;47.856;12.154;2023-02-05T07:29:47;98114.34;;;-0.37;100.00
11444;BME280;5778;47.856;12.154;2023-02-05T07:32:14;98122.91;;;-0.53;100.00
11444;BME280;5778;47.856;12.154;2023-02-05T07:34:40;98120.44;;;-0.55;100.00
11444;BME280;5778;47.856;12.154;2023-02-05T07:37:10;98122.91;;;-0.44;100.00
11444;BME280;5778;47.856;12.154;2023-02-05T07:39:38;98126.38;;;-0.53;100.00
11444;BME280;5778;47.856;12.154;2023-02-05T07:42:05;98123.59;;;-0.61;100.00
11444;BME280;5778;47.856;12.154;2023-02-05T07:44:40;98116.19;;;-0.56;100.00
11444;BME280;5778;47.856;12.154;2023-02-05T07:47:07;98118.06;;;-0.39;100.00
11444;BME280;5778;47.856;12.154;2023-02-05T07:49:34;98109.97;;;-0.36;100.00
11444;BME280;5778;47.856;12.154;2023-02-05T07:52:01;98107.22;;;-0.34;100.00
11444;BME280;5778;47.856;12.154;2023-02-05T07:54:28;98109.13;;;-0.27;100.00
11444;BME280;5778;47.856;12.154;2023-02-05T07:56:56;98113.22;;;-0.15;100.00
11444;BME280;5778;47.856;12.154;2023-02-05T07:59:24;98106.88;;;-0.13;100.00
11444;BME280;5778;47.856;12.154;2023-02-05T08:01:51;98105.88;;;-0.02;100.00
11444;BME280;5778;47.856;12.154;2023-02-05T08:04:19;98097.78;;;0.18;100.00
11444;BME280;5778;47.856;12.154;2023-02-05T08:06:46;98092.97;;;0.23;100.00
11444;BME280;5778;47.856;12.154;2023-02-05T08:09:13;98090.00;;;0.36;100.00
11444;BME280;5778;47.856;12.154;2023-02-05T08:11:41;98087.84;;;0.49;100.00
11444;BME280;5778;47.856;12.154;2023-02-05T08:14:09;98082.63;;;0.49;100.00
11444;BME280;5778;47.856;12.154;2023-02-05T08:16:36;98085.81;;;0.52;100.00
11444;BME280;5778;47.856;12.154;2023-02-05T08:19:03;98088.03;;;0.65;100.00
11444;BME280;5778;47.856;12.154;2023-02-05T08:21:30;98082.81;;;0.65;100.00
11444;BME280;5778;47.856;12.154;2023-02-05T08:23:57;98099.47;;;0.46;100.00
11444;BME280;5778;47.856;12.154;2023-02-05T08:26:25;98106.03;;;0.50;100.00
11444;BME280;5778;47.856;12.154;2023-02-05T08:28:53;98111.81;;;0.54;100.00
11444;BME280;5778;47.856;12.154;2023-02-05T08:31:22;98101.50;;;0.70;100.00
11444;BME280;5778;47.856;12.154;2023-02-05T08:33:49;98106.00;;;0.77;100.00
11444;BME280;5778;47.856;12.154;2023-02-05T08:39:01;98106.16;;;0.76;100.00
11444;BME280;5778;47.856;12.154;2023-02-05T08:41:28;98108.94;;;0.92;100.00
11444;BME280;5778;47.856;12.154;2023-02-05T08:43:54;98098.91;;;0.87;100.00
11444;BME280;5778;47.856;12.154;2023-02-05T08:46:24;98099.91;;;0.86;100.00
11444;BME280;5778;47.856;12.154;2023-02-05T08:48:52;98097.88;;;1.15;100.00
11444;BME280;5778;47.856;12.154;2023-02-05T08:51:20;98092.63;;;1.15;100.00
11444;BME280;5778;47.856;12.154;2023-02-05T08:53:48;98090.75;;;1.08;100.00
11444;BME280;5778;47.856;12.154;2023-02-05T08:56:15;98086.88;;;1.29;100.00
11444;BME280;5778;47.856;12.154;2023-02-05T08:58:42;98078.25;;;1.37;100.00
11444;BME280;5778;47.856;12.154;2023-02-05T09:01:10;98070.88;;;1.58;100.00
11444;BME280;5778;47.856;12.154;2023-02-05T09:03:40;98068.25;;;1.58;100.00
11444;BME280;5778;47.856;12.154;2023-02-05T09:06:09;98062.28;;;1.48;100.00
11444;BME280;5778;47.856;12.154;2023-02-05T09:08:37;98060.38;;;1.58;100.00
11444;BME280;5778;47.856;12.154;2023-02-05T09:11:05;98053.44;;;1.49;100.00
11444;BME280;5778;47.856;12.154;2023-02-05T09:13:33;98046.34;;;1.67;100.00
11444;BME280;5778;47.856;12.154;2023-02-05T09:16:00;98044.69;;;1.66;100.00
11444;BME280;5778;47.856;12.154;2023-02-05T09:18:27;98045.16;;;1.95;100.00
11444;BME280;5778;47.856;12.154;2023-02-05T09:20:57;98042.03;;;2.25;100.00
11444;BME280;5778;47.856;12.154;2023-02-05T09:23:24;98037.44;;;2.19;100.00
11444;BME280;5778;47.856;12.154;2023-02-05T09:25:51;98044.63;;;2.17;100.00
11444;BME280;5778;47.856;12.154;2023-02-05T09:28:18;98047.41;;;1.82;100.00
11444;BME280;5778;47.856;12.154;2023-02-05T09:30:45;98042.09;;;1.74;100.00
11444;BME280;5778;47.856;12.154;2023-02-05T09:33:12;98040.97;;;2.02;100.00
11444;BME280;5778;47.856;12.154;2023-02-05T09:35:40;98042.66;;;1.77;100.00
11444;BME280;5778;47.856;12.154;2023-02-05T09:38:12;98032.66;;;1.81;100.00
11444;BME280;5778;47.856;12.154;2023-02-05T09:40:43;98041.81;;;2.10;100.00
11444;BME280;5778;47.856;12.154;2023-02-05T09:43:26;98035.94;;;2.16;100.00
11444;BME280;5778;47.856;12.154;2023-02-05T09:45:59;98042.69;;;2.19;100.00
11444;BME280;5778;47.856;12.154;2023-02-05T09:48:48;98036.47;;;2.28;100.00
11444;BME280;5778;47.856;12.154;2023-02-05T09:51:22;98033.34;;;2.24;100.00
11444;BME280;5778;47.856;12.154;2023-02-05T09:53:56;98040.13;;;2.43;100.00
11444;BME280;5778;47.856;12.154;2023-02-05T09:56:26;98024.88;;;2.46;100.00
11444;BME280;5778;47.856;12.154;2023-02-05T09:58:54;98016.88;;;2.64;100.00
11444;BME280;5778;47.856;12.154;2023-02-05T10:01:28;98027.28;;;2.97;100.00
11444;BME280;5778;47.856;12.154;2023-02-05T10:04:01;98020.53;;;3.11;100.00
11444;BME280;5778;47.856;12.154;2023-02-05T10:12:57;98007.19;;;3.44;100.00
11444;BME280;5778;47.856;12.154;2023-02-05T10:15:42;98004.69;;;3.59;100.00
11444;BME280;5778;47.856;12.154;2023-02-05T10:18:18;98003.06;;;3.58;100.00
11444;BME280;5778;47.856;12.154;2023-02-05T10:21:01;97993.41;;;3.42;100.00
11444;BME280;5778;47.856;12.154;2023-02-05T10:23:52;97995.13;;;3.82;100.00
11444;BME280;5778;47.856;12.154;2023-02-05T10:26:29;97979.88;;;4.08;100.00
11444;BME280;5778;47.856;12.154;2023-02-05T10:29:10;97969.47;;;4.53;100.00
11444;BME280;5778;47.856;12.154;2023-02-05T10:31:41;97961.94;;;4.64;100.00
11444;BME280;5778;47.856;12.154;2023-02-05T10:34:25;97946.59;;;4.68;100.00
11444;BME280;5778;47.856;12.154;2023-02-05T10:36:55;97942.91;;;4.32;100.00
11444;BME280;5778;47.856;12.154;2023-02-05T10:39:24;97941.56;;;4.36;100.00
11444;BME280;5778;47.856;12.154;2023-02-05T10:41:58;97941.22;;;4.39;100.00
11444;BME280;5778;47.856;12.154;2023-02-05T10:44:30;97927.72;;;4.42;100.00
11444;BME280;5778;47.856;12.154;2023-02-05T10:47:02;97931.38;;;4.78;100.00
11444;BME280;5778;47.856;12.154;2023-02-05T10:49:41;97921.59;;;5.23;100.00
11444;BME280;5778;47.856;12.154;2023-02-05T10:52:12;97906.16;;;5.49;100.00
11444;BME280;5778;47.856;12.154;2023-02-05T10:54:40;97897.97;;;5.44;100.00
11444;BME280;5778;47.856;12.154;2023-02-05T10:57:13;97896.34;;;5.58;100.00
11444;BME280;5778;47.856;12.154;2023-02-05T10:59:48;97887.50;;;5.65;100.00
11444;BME280;5778;47.856;12.154;2023-02-05T11:02:19;97887.50;;;5.51;100.00
11444;BME280;5778;47.856;12.154;2023-02-05T11:04:51;97883.88;;;5.81;100.00
11444;BME280;5778;47.856;12.154;2023-02-05T11:07:24;97886.06;;;5.63;100.00
11444;BME280;5778;47.856;12.154;2023-02-05T11:09:52;97886.47;;;5.95;100.00
11444;BME280;5778;47.856;12.154;2023-02-05T11:12:27;97884.19;;;6.07;100.00
11444;BME280;5778;47.856;12.154;2023-02-05T11:14:57;97888.84;;;6.40;100.00
11444;BME280;5778;47.856;12.154;2023-02-05T11:17:28;97878.31;;;6.47;100.00
11444;BME280;5778;47.856;12.154;2023-02-05T11:19:59;97880.41;;;6.51;100.00
11444;BME280;5778;47.856;12.154;2023-02-05T11:22:29;97875.50;;;6.69;100.00
11444;BME280;5778;47.856;12.154;2023-02-05T11:25:05;97880.78;;;6.69;100.00
11444;BME280;5778;47.856;12.154;2023-02-05T11:27:35;97876.00;;;6.37;100.00
11444;BME280;5778;47.856;12.154;2023-02-05T11:30:24;97865.09;;;6.89;100.00
11444;BME280;5778;47.856;12.154;2023-02-05T11:32:52;97864.22;;;6.40;100.00
11444;BME280;5778;47.856;12.154;2023-02-05T11:35:22;97860.53;;;7.04;100.00
11444;BME280;5778;47.856;12.154;2023-02-05T11:37:58;97863.44;;;7.43;100.00
11444;BME280;5778;47.856;12.154;2023-02-05T11:40:27;97864.09;;;7.51;100.00
11444;BME280;5778;47.856;12.154;2023-02-05T11:43:01;97855.97;;;7.59;100.00
11444;BME280;5778;47.856;12.154;2023-02-05T11:45:30;97858.56;;;6.64;100.00
11444;BME280;5778;47.856;12.154;2023-02-05T11:48:02;97861.44;;;6.06;100.00
11444;BME280;5778;47.856;12.154;2023-02-05T11:50:32;97856.94;;;6.06;100.00
11444;BME280;5778;47.856;12.154;2023-02-05T11:53:08;97855.03;;;6.57;100.00
11444;BME280;5778;47.856;12.154;2023-02-05T11:55:41;97857.56;;;6.23;100.00
11444;BME280;5778;47.856;12.154;2023-02-05T11:58:20;97852.22;;;6.58;100.00
11444;BME280;5778;47.856;12.154;2023-02-05T12:00:50;97848.09;;;7.04;100.00
11444;BME280;5778;47.856;12.154;2023-02-05T12:03:19;97847.78;;;7.14;100.00
11444;BME280;5778;47.856;12.154;2023-02-05T12:05:50;97846.22;;;6.92;100.00
11444;BME280;5778;47.856;12.154;2023-02-05T12:08:27;97853.41;;;6.56;100.00
11444;BME280;5778;47.856;12.154;2023-02-05T12:11:12;97848.34;;;6.82;100.00
11444;BME280;5778;47.856;12.154;2023-02-05T12:13:55;97848.44;;;7.22;100.00
11444;BME280;5778;47.856;12.154;2023-02-05T12:16:43;97844.91;;;7.43;100.00
11444;BME280;5778;47.856;12.154;2023-02-05T12:19:16;97840.50;;;7.56;100.00
11444;BME280;5778;47.856;12.154;2023-02-05T12:21:47;97839.38;;;7.78;100.00
11444;BME280;5778;47.856;12.154;2023-02-05T12:24:46;97840.50;;;8.03;100.00
11444;BME280;5778;47.856;12.154;2023-02-05T12:27:32;97840.88;;;8.00;100.00
11444;BME280;5778;47.856;12.154;2023-02-05T12:30:34;97840.72;;;7.61;100.00
11444;BME280;5778;47.856;12.154;2023-02-05T12:33:18;97842.31;;;7.56;100.00
11444;BME280;5778;47.856;12.154;2023-02-05T12:35:59;97829.84;;;7.43;100.00
11444;BME280;5778;47.856;12.154;2023-02-05T12:38:41;97834.78;;;6.22;100.00
11444;BME280;5778;47.856;12.154;2023-02-05T12:41:21;97836.44;;;6.65;100.00
11444;BME280;5778;47.856;12.154;2023-02-05T12:43:55;97832.00;;;6.72;100.00
11444;BME280;5778;47.856;12.154;2023-02-05T12:46:45;97836.00;;;5.84;100.00
11444;BME280;5778;47.856;12.154;2023-02-05T12:49:26;97831.53;;;5.84;100.00
11444;BME280;5778;47.856;12.154;2023-02-05T12:52:08;97827.13;;;5.77;100.00
11444;BME280;5778;47.856;12.154;2023-02-05T12:54:54;97825.59;;;6.18;100.00
11444;BME280;5778;47.856;12.154;2023-02-05T12:57:32;97819.50;;;5.96;100.00
11444;BME280;5778;47.856;12.154;2023-02-05T13:00:04;97816.34;;;6.28;100.00
11444;BME280;5778;47.856;12.154;2023-02-05T13:02:39;97820.31;;;6.39;100.00
11444;BME280;5778;47.856;12.154;2023-02-05T13:05:16;97823.38;;;5.50;100.00
11444;BME280;5778;47.856;12.154;2023-02-05T13:07:51;97821.16;;;5.83;100.00
11444;BME280;5778;47.856;12.154;2023-02-05T13:10:23;97829.00;;;6.12;100.00
11444;BME280;5778;47.856;12.154;2023-02-05T13:12:56;97822.31;;;6.37;100.00
11444;BME280;5778;47.856;12.154;2023-02-05T13:15:27;97823.19;;;6.02;100.00
11444;BME280;5778;47.856;12.154;2023-02-05T13:18:00;97813.91;;;6.06;100.00
11444;BME280;5778;47.856;12.154;2023-02-05T13:20:31;97814.13;;;5.90;100.00
11444;BME280;5778;47.856;12.154;2023-02-05T13:23:18;97806.25;;;6.11;100.00
11444;BME280;5778;47.856;12.154;2023-02-05T13:26:04;97809.75;;;6.18;100.00